Time;durP1;ratioP1;P1;durP2;ratioP2;P2;SDS_P1;SDS_P2;PMS_P1;PMS_P2;Temp;Humidity;BMP_temperature;BMP_pressure;BME280_temperature;BME280_humidity;BME280_pressure;Samples;Min_cycle;Max_cycle;Signal;HPM_P1;HPM_P2
2022/11/05 00:10:17;;;;;;;10.13;3.50;;;7.20;99.90;;;;;;4969422;28;20038;-76
2022/11/05 00:18:11;;;;;;;7.82;3.72;;;7.20;99.90;;;;;;4964370;28;20847;-77
2022/11/05 00:20:37;;;;;;;13.40;4.10;;;9.30;99.90;;;;;;4995452;28;20030;-77
2022/11/05 00:26:00;;;;;;;9.23;3.70;;;7.30;99.90;;;;;;4973463;28;20050;-76
2022/11/05 00:28:27;;;;;;;12.38;4.28;;;7.20;99.90;;;;;;4967155;28;20035;-78
2022/11/05 00:30:58;;;;;;;16.00;4.32;;;7.10;99.90;;;;;;4948295;28;20043;-77
2022/11/05 00:33:24;;;;;;;9.88;4.43;;;7.20;99.90;;;;;;4963663;28;20043;-78
2022/11/05 00:35:50;;;;;;;9.18;3.83;;;7.10;99.90;;;;;;4983937;28;20053;-77
2022/11/05 00:38:15;;;;;;;10.35;4.20;;;7.20;99.90;;;;;;4935091;28;20062;-78
2022/11/05 00:40:41;;;;;;;7.75;3.90;;;7.40;99.90;;;;;;4959211;28;20321;-76
2022/11/05 00:45:51;;;;;;;8.90;4.80;;;6.90;99.90;;;;;;4951168;28;20062;-75
2022/11/05 00:51:01;;;;;;;8.82;4.45;;;7.20;99.90;;;;;;4980536;28;20049;-79
2022/11/05 00:53:26;;;;;;;13.18;4.07;;;7.10;99.90;;;;;;4942436;28;20046;-77
2022/11/05 00:55:52;;;;;;;13.35;4.85;;;6.90;99.90;;;;;;4956392;28;20039;-78
2022/11/05 00:58:20;;;;;;;8.13;3.60;;;6.90;99.90;;;;;;4987197;28;20031;-77
2022/11/05 01:00:59;;;;;;;10.07;4.45;;;8.90;99.90;;;;;;4950389;28;20049;-77
2022/11/05 01:03:36;;;;;;;8.98;4.50;;;8.70;99.90;;;;;;4952812;29;20043;-77
2022/11/05 01:06:11;;;;;;;12.20;4.30;;;6.90;99.90;;;;;;4940452;29;20042;-78
2022/11/05 01:08:38;;;;;;;10.88;4.10;;;7.00;99.90;;;;;;4963281;28;20058;-76
2022/11/05 01:11:31;;;;;;;14.20;5.15;;;7.40;99.90;;;;;;4930316;29;20035;-77
2022/11/05 01:14:02;;;;;;;13.18;4.75;;;9.10;99.90;;;;;;4955340;28;20086;-76
2022/11/05 01:16:28;;;;;;;10.00;3.92;;;7.20;99.90;;;;;;4966051;28;20218;-75
2022/11/05 01:18:54;;;;;;;10.35;4.28;;;7.30;99.90;;;;;;4959556;28;20105;-78
2022/11/05 01:21:19;;;;;;;7.13;4.07;;;6.90;99.90;;;;;;4973364;28;20069;-76
2022/11/05 01:23:45;;;;;;;11.38;3.83;;;6.90;99.90;;;;;;4973600;28;20049;-77
2022/11/05 01:26:11;;;;;;;6.30;3.38;;;7.50;99.90;;;;;;4963456;28;20047;-77
2022/11/05 01:28:36;;;;;;;11.43;3.78;;;7.00;99.90;;;;;;4947680;28;20468;-77
2022/11/05 01:31:02;;;;;;;8.52;3.60;;;7.10;99.90;;;;;;4953455;28;20042;-76
2022/11/05 01:33:28;;;;;;;11.27;3.40;;;7.00;99.90;;;;;;4958347;29;20046;-77
2022/11/05 01:35:54;;;;;;;9.25;4.18;;;7.50;99.90;;;;;;4956631;28;20148;-79
2022/11/05 01:38:19;;;;;;;8.00;3.20;;;8.00;99.90;;;;;;4938097;28;20118;-78
2022/11/05 01:40:46;;;;;;;7.07;3.30;;;6.90;99.90;;;;;;4948462;28;20043;-76
2022/11/05 01:43:21;;;;;;;7.00;3.00;;;6.80;99.90;;;;;;4947747;28;20117;-76
2022/11/05 01:45:53;;;;;;;6.00;3.05;;;7.30;99.90;;;;;;4957260;28;20082;-78
2022/11/05 01:48:34;;;;;;;7.57;3.40;;;8.60;99.90;;;;;;4971828;28;20041;-76
2022/11/05 01:51:16;;;;;;;10.80;3.00;;;8.80;99.90;;;;;;4978070;28;20034;-78
2022/11/05 01:54:05;;;;;;;7.35;2.83;;;6.80;99.90;;;;;;4980643;28;20050;-78
2022/11/05 01:56:42;;;;;;;8.52;2.90;;;6.80;99.90;;;;;;4967144;28;20041;-78
2022/11/05 01:59:13;;;;;;;4.10;2.65;;;7.00;99.90;;;;;;4952682;28;20035;-78
2022/11/05 02:01:39;;;;;;;7.90;3.03;;;6.70;99.90;;;;;;4975525;28;20034;-78
2022/11/05 02:04:09;;;;;;;9.00;3.22;;;6.80;99.90;;;;;;4966563;28;20073;-78
2022/11/05 02:06:41;;;;;;;8.02;2.90;;;8.20;99.90;;;;;;4984717;28;20049;-78
2022/11/05 02:09:10;;;;;;;12.82;3.20;;;7.10;99.90;;;;;;4961474;28;20125;-78
2022/11/05 02:11:36;;;;;;;5.03;2.70;;;6.90;99.90;;;;;;4975348;28;20043;-77
2022/11/05 02:14:01;;;;;;;10.02;2.90;;;6.90;99.90;;;;;;4946758;29;20042;-79
2022/11/05 02:16:54;;;;;;;7.82;2.97;;;7.50;99.90;;;;;;4945727;28;20147;-78
2022/11/05 02:19:48;;;;;;;7.32;2.72;;;7.10;99.90;;;;;;4970171;28;20043;-78
2022/11/05 02:22:22;;;;;;;7.95;2.83;;;7.10;99.90;;;;;;4961908;28;20070;-74
2022/11/05 02:25:32;;;;;;;9.45;2.95;;;7.20;99.90;;;;;;4976303;28;20042;-76
2022/11/05 02:28:36;;;;;;;8.10;2.60;;;7.20;99.90;;;;;;4953153;29;20035;-77
2022/11/05 02:31:15;;;;;;;10.00;2.72;;;7.30;99.90;;;;;;4982933;28;20034;-75
2022/11/05 02:33:58;;;;;;;4.72;2.60;;;7.00;99.90;;;;;;4954108;28;20109;-78
2022/11/05 02:36:36;;;;;;;6.13;2.20;;;7.00;99.90;;;;;;4964257;28;20073;-77
2022/11/05 02:39:24;;;;;;;6.93;2.40;;;7.00;99.90;;;;;;4962269;28;20093;-76
2022/11/05 02:42:14;;;;;;;5.30;2.10;;;7.10;99.90;;;;;;4997984;28;20061;-75
2022/11/05 02:44:46;;;;;;;7.05;2.30;;;7.20;99.90;;;;;;4948002;28;20109;-77
2022/11/05 02:47:17;;;;;;;3.65;2.20;;;7.00;99.90;;;;;;4954405;28;20092;-77
2022/11/05 02:50:02;;;;;;;3.90;2.17;;;6.80;99.90;;;;;;4968525;28;20042;-77
2022/11/05 02:52:34;;;;;;;;;;;6.80;99.90;;;;;;4962109;28;20049;-77
2022/11/05 02:55:12;;;;;;;7.10;2.05;;;7.10;99.90;;;;;;4991171;28;19926;-76
2022/11/05 02:57:43;;;;;;;11.77;2.10;;;6.90;99.90;;;;;;4975239;28;20179;-77
2022/11/05 03:00:39;;;;;;;11.05;2.28;;;6.80;99.90;;;;;;4949543;28;20042;-76
2022/11/05 03:03:13;;;;;;;4.93;1.98;;;7.10;99.90;;;;;;4967759;28;20036;-75
2022/11/05 03:06:01;;;;;;;6.20;1.75;;;6.80;99.90;;;;;;4957318;28;20043;-77
2022/11/05 03:08:52;;;;;;;7.63;2.20;;;6.70;99.90;;;;;;4985595;28;20045;-76
2022/11/05 03:11:21;;;;;;;5.18;2.10;;;6.80;99.90;;;;;;4980296;28;20050;-78
2022/11/05 03:13:52;;;;;;;5.93;2.08;;;6.80;99.90;;;;;;4982933;28;20069;-75
2022/11/05 03:16:28;;;;;;;5.55;2.22;;;6.90;99.90;;;;;;4965669;28;20057;-76
2022/11/05 03:19:18;;;;;;;6.15;2.38;;;7.90;99.90;;;;;;4977911;28;20042;-76
2022/11/05 03:22:01;;;;;;;8.13;2.78;;;6.80;99.90;;;;;;4955036;28;20065;-76
2022/11/05 03:24:33;;;;;;;5.80;1.60;;;6.80;99.90;;;;;;4975656;28;20081;-76
2022/11/05 03:27:11;;;;;;;6.57;2.05;;;6.80;99.90;;;;;;4968166;28;20026;-76
2022/11/05 03:29:43;;;;;;;5.80;1.77;;;6.70;99.90;;;;;;4980590;28;20105;-78
2022/11/05 03:32:10;;;;;;;5.10;1.83;;;6.60;99.90;;;;;;4960676;29;20035;-78
2022/11/05 03:34:41;;;;;;;3.70;1.77;;;6.70;99.90;;;;;;4935347;28;20067;-78
2022/11/05 03:37:08;;;;;;;6.78;1.95;;;6.50;99.90;;;;;;4980897;28;20106;-75
2022/11/05 03:39:45;;;;;;;5.82;1.65;;;6.50;99.90;;;;;;4966288;28;20071;-76
2022/11/05 03:42:15;;;;;;;8.07;2.00;;;6.40;99.90;;;;;;4948199;29;20039;-76
2022/11/05 03:44:46;;;;;;;17.80;3.35;;;7.00;99.90;;;;;;4982972;28;20175;-78
2022/11/05 03:47:18;;;;;;;9.95;2.25;;;7.40;99.90;;;;;;4964237;29;20047;-74
2022/11/05 03:50:11;;;;;;;10.18;1.88;;;6.50;99.90;;;;;;4983036;28;20131;-78
2022/11/05 03:52:44;;;;;;;10.65;2.55;;;5.90;99.90;;;;;;4966074;28;20042;-77
2022/11/05 03:55:10;;;;;;;5.97;2.20;;;6.70;99.90;;;;;;4964089;29;20039;-76
2022/11/05 03:57:40;;;;;;;10.45;2.85;;;6.60;99.90;;;;;;4965646;28;20105;-77
2022/11/05 04:00:08;;;;;;;8.70;2.75;;;6.80;99.90;;;;;;4967334;28;20122;-77
2022/11/05 04:02:33;;;;;;;8.60;3.00;;;7.00;99.90;;;;;;4967128;28;20109;-76
2022/11/05 04:04:59;;;;;;;7.85;2.60;;;7.10;99.90;;;;;;4967544;28;20031;-77
2022/11/05 04:18:21;;;;;;;4.50;2.38;;;7.10;99.90;;;;;;4953418;28;20081;-79
2022/11/05 04:26:15;;;;;;;5.40;2.63;;;7.70;99.90;;;;;;4953211;28;20045;-78
2022/11/05 04:31:25;;;;;;;7.45;3.05;;;7.40;99.90;;;;;;4962464;28;20036;-76
2022/11/05 04:33:51;;;;;;;5.25;2.72;;;7.50;99.90;;;;;;4947573;29;20310;-78
2022/11/05 04:36:18;;;;;;;10.25;3.40;;;7.40;99.90;;;;;;4946729;29;20310;-76
2022/11/05 04:38:44;;;;;;;6.32;2.90;;;7.30;99.90;;;;;;4941475;28;20051;-77
2022/11/05 04:41:14;;;;;;;8.15;3.60;;;7.40;99.90;;;;;;4959408;28;20218;-78
2022/11/05 04:43:40;;;;;;;4.95;3.17;;;7.40;99.90;;;;;;4929869;29;20035;-77
2022/11/05 04:46:06;;;;;;;9.95;3.80;;;7.50;99.90;;;;;;4931644;29;20130;-78
2022/11/05 04:48:32;;;;;;;7.75;3.22;;;7.70;99.90;;;;;;4930127;29;20031;-77
2022/11/05 04:50:57;;;;;;;5.70;3.22;;;7.90;99.90;;;;;;4946741;29;20122;-77
2022/11/05 04:53:23;;;;;;;9.73;3.60;;;7.40;99.90;;;;;;4941962;29;20062;-77
2022/11/05 04:55:49;;;;;;;6.47;3.10;;;7.40;99.90;;;;;;4928249;29;20215;-77
2022/11/05 04:58:15;;;;;;;7.43;3.45;;;7.60;99.90;;;;;;4957827;29;20039;-77
2022/11/05 05:00:41;;;;;;;6.10;3.20;;;7.40;99.90;;;;;;4960912;28;20187;-76
2022/11/05 05:03:07;;;;;;;6.32;3.50;;;7.30;99.90;;;;;;4951251;29;20046;-76
2022/11/05 05:05:32;;;;;;;8.43;3.35;;;7.20;99.90;;;;;;4928688;29;20036;-76
2022/11/05 05:08:02;;;;;;;7.22;3.17;;;7.40;99.90;;;;;;4930420;29;20448;-76
2022/11/05 05:10:28;;;;;;;5.85;3.38;;;7.60;99.90;;;;;;4945643;29;20250;-77
2022/11/05 05:12:53;;;;;;;7.57;4.22;;;7.30;99.90;;;;;;4942799;29;20046;-78
2022/11/05 05:15:19;;;;;;;8.15;3.75;;;7.50;99.90;;;;;;4962618;29;20463;-78
2022/11/05 05:17:50;;;;;;;10.07;4.93;;;9.40;99.90;;;;;;4949927;29;20032;-80
2022/11/05 05:23:00;;;;;;;6.47;3.92;;;7.70;99.90;;;;;;4938190;29;20031;-79
2022/11/05 05:25:26;;;;;;;8.50;4.68;;;7.40;99.90;;;;;;4945742;29;20586;-79
2022/11/05 05:27:51;;;;;;;6.97;4.78;;;7.50;99.90;;;;;;4930537;29;20031;-77
2022/11/05 05:30:17;;;;;;;10.00;4.40;;;7.20;99.90;;;;;;4930292;29;20367;-76
2022/11/05 05:32:43;;;;;;;6.95;4.43;;;7.30;99.90;;;;;;4939725;28;20028;-79
2022/11/05 05:35:09;;;;;;;10.80;5.45;;;7.00;99.90;;;;;;4952647;29;20073;-77
2022/11/05 05:37:35;;;;;;;7.45;4.82;;;7.40;99.90;;;;;;4962346;28;20049;-77
2022/11/05 05:40:00;;;;;;;5.03;4.53;;;7.30;99.90;;;;;;4946977;28;20466;-78
2022/11/05 05:42:26;;;;;;;11.43;5.63;;;7.30;99.90;;;;;;4946152;28;20066;-80
2022/11/05 05:44:51;;;;;;;8.40;4.75;;;7.10;99.90;;;;;;4952742;28;20077;-77
2022/11/05 05:47:17;;;;;;;8.98;5.32;;;6.90;99.90;;;;;;4951032;28;20041;-78
2022/11/05 05:49:43;;;;;;;9.25;4.93;;;7.00;99.90;;;;;;4950579;28;20034;-76
2022/11/05 05:52:08;;;;;;;10.93;5.57;;;7.40;99.90;;;;;;4971058;28;20046;-74
2022/11/05 05:54:34;;;;;;;9.50;5.38;;;7.10;99.90;;;;;;4965020;28;20081;-75
2022/11/05 05:57:00;;;;;;;8.27;5.38;;;7.10;99.90;;;;;;4977260;28;20038;-76
2022/11/05 05:59:25;;;;;;;11.65;5.20;;;7.10;99.90;;;;;;4928138;28;20023;-76
2022/11/05 06:01:52;;;;;;;11.07;5.43;;;6.90;99.90;;;;;;4960754;29;20031;-75
2022/11/05 06:04:18;;;;;;;13.32;5.75;;;7.30;99.90;;;;;;4976009;28;20078;-76
2022/11/05 06:06:45;;;;;;;10.73;6.50;;;7.00;99.90;;;;;;4976846;28;20542;-74
2022/11/05 06:09:12;;;;;;;8.70;5.88;;;8.20;99.90;;;;;;4981427;28;20081;-76
2022/11/05 06:11:38;;;;;;;10.30;5.65;;;6.80;99.90;;;;;;4978885;28;20038;-79
2022/11/05 06:14:04;;;;;;;8.05;4.82;;;8.70;99.90;;;;;;4947808;28;20302;-78
2022/11/05 06:16:34;;;;;;;7.82;5.57;;;6.90;99.90;;;;;;4962148;28;20039;-77
2022/11/05 06:19:01;;;;;;;8.57;5.38;;;9.00;99.90;;;;;;4968568;28;20379;-76
2022/11/05 06:21:27;;;;;;;11.40;6.03;;;7.00;99.90;;;;;;4964546;28;20027;-76
2022/11/05 06:23:52;;;;;;;9.70;5.72;;;6.80;99.90;;;;;;4961169;28;20054;-74
2022/11/05 06:26:18;;;;;;;8.10;5.70;;;7.00;99.90;;;;;;4948778;28;20042;-79
2022/11/05 06:28:45;;;;;;;7.55;5.70;;;6.90;99.90;;;;;;4963954;28;20250;-76
2022/11/05 06:31:12;;;;;;;10.32;5.95;;;7.30;99.90;;;;;;4954351;28;20037;-74
2022/11/05 06:33:38;;;;;;;10.55;5.65;;;7.90;99.90;;;;;;4980598;28;20062;-74
2022/11/05 06:36:06;;;;;;;9.40;5.35;;;6.80;99.90;;;;;;4982549;28;20045;-75
2022/11/05 06:38:34;;;;;;;12.18;6.10;;;7.10;99.90;;;;;;4968114;28;20089;-74
2022/11/05 06:41:00;;;;;;;7.93;5.75;;;7.00;99.90;;;;;;4969419;28;20185;-76
2022/11/05 06:43:27;;;;;;;9.55;5.88;;;7.00;99.90;;;;;;4996613;28;20113;-78
2022/11/05 06:45:53;;;;;;;14.55;6.22;;;6.90;99.90;;;;;;4976092;28;20034;-74
2022/11/05 06:48:19;;;;;;;10.20;5.88;;;6.90;99.90;;;;;;4968640;28;20035;-74
2022/11/05 06:50:45;;;;;;;12.52;6.15;;;6.90;99.90;;;;;;4951624;28;20043;-76
2022/11/05 06:53:11;;;;;;;9.13;5.70;;;7.00;99.90;;;;;;4963379;28;20229;-75
2022/11/05 06:55:37;;;;;;;11.55;5.88;;;7.00;99.90;;;;;;4977852;28;20045;-74
2022/11/05 06:58:03;;;;;;;14.68;6.70;;;6.70;99.90;;;;;;4982199;28;20045;-74
2022/11/05 07:00:29;;;;;;;9.35;5.88;;;6.70;99.90;;;;;;4965181;28;20031;-77
2022/11/05 07:02:55;;;;;;;11.70;5.97;;;7.20;99.90;;;;;;4966581;28;20066;-72
2022/11/05 07:05:22;;;;;;;10.75;6.60;;;6.70;99.90;;;;;;4972644;28;20041;-75
2022/11/05 07:07:47;;;;;;;10.85;6.68;;;6.60;99.90;;;;;;4985592;28;20034;-76
2022/11/05 07:10:16;;;;;;;10.15;6.75;;;7.30;99.90;;;;;;4962906;28;20037;-77
2022/11/05 07:12:42;;;;;;;14.35;7.50;;;6.80;99.90;;;;;;4951310;28;20043;-76
2022/11/05 07:15:10;;;;;;;15.88;7.80;;;6.90;99.90;;;;;;4955601;28;20038;-76
2022/11/05 07:17:36;;;;;;;10.38;7.55;;;6.90;99.90;;;;;;4977026;28;20023;-75
2022/11/05 07:20:02;;;;;;;16.77;7.35;;;6.80;99.90;;;;;;4949366;29;20028;-76
2022/11/05 07:22:28;;;;;;;8.73;6.22;;;6.70;99.90;;;;;;4956982;29;20027;-77
2022/11/05 07:24:54;;;;;;;12.05;6.95;;;6.70;99.90;;;;;;4978610;28;20047;-76
2022/11/05 07:27:20;;;;;;;11.52;6.85;;;7.00;99.90;;;;;;4948204;29;20050;-76
2022/11/05 07:29:46;;;;;;;9.13;6.30;;;7.70;99.90;;;;;;4941808;28;20042;-76
2022/11/05 07:32:14;;;;;;;8.50;6.07;;;7.50;99.90;;;;;;4948636;29;20066;-79
2022/11/05 07:34:40;;;;;;;9.95;7.05;;;7.10;99.90;;;;;;4945496;28;20072;-76
2022/11/05 07:37:05;;;;;;;8.20;6.15;;;6.90;99.90;;;;;;4969339;28;20046;-74
2022/11/05 07:39:31;;;;;;;9.00;6.72;;;7.10;99.90;;;;;;4971810;28;20046;-76
2022/11/05 07:41:57;;;;;;;11.40;6.60;;;7.30;99.90;;;;;;4925234;28;20038;-76
2022/11/05 07:44:23;;;;;;;11.35;6.63;;;7.20;99.90;;;;;;4983054;28;20034;-78
2022/11/05 07:47:59;;;;;;;10.25;6.28;;;7.50;99.90;;;;;;4972489;28;20081;-76
2022/11/05 07:50:38;;;;;;;12.45;7.13;;;7.30;99.90;;;;;;4974348;28;20046;-77
2022/11/05 07:53:14;;;;;;;12.63;6.50;;;7.50;99.90;;;;;;4972562;28;20049;-77
2022/11/05 07:55:40;;;;;;;8.82;5.65;;;8.60;99.90;;;;;;4925678;28;20309;-75
2022/11/05 07:58:09;;;;;;;7.63;4.60;;;7.90;99.90;;;;;;4958938;28;20333;-75
2022/11/05 08:00:36;;;;;;;9.20;4.50;;;8.70;99.90;;;;;;4928529;28;20101;-77
2022/11/05 08:03:05;;;;;;;6.95;4.00;;;8.60;99.90;;;;;;4960882;29;20257;-77
2022/11/05 08:05:48;;;;;;;5.88;4.20;;;8.60;99.90;;;;;;4937731;29;20054;-79
2022/11/05 08:08:16;;;;;;;6.93;3.78;;;8.50;99.90;;;;;;4944187;29;20043;-76
2022/11/05 08:10:43;;;;;;;6.15;3.53;;;8.90;99.90;;;;;;4969172;28;20074;-76
2022/11/05 08:13:09;;;;;;;6.28;3.55;;;8.60;99.90;;;;;;4949924;28;20043;-78
2022/11/05 08:15:35;;;;;;;4.80;3.38;;;8.90;99.90;;;;;;4964891;28;20038;-76
2022/11/05 08:18:03;;;;;;;7.07;3.50;;;8.90;99.90;;;;;;4961765;29;20250;-78
2022/11/05 08:20:32;;;;;;;3.90;3.30;;;9.40;99.90;;;;;;4961676;28;20348;-76
2022/11/05 08:22:58;;;;;;;7.22;3.05;;;9.20;99.90;;;;;;4963565;28;20046;-78
2022/11/05 08:25:24;;;;;;;4.20;3.13;;;9.60;99.90;;;;;;4939574;29;20035;-77
2022/11/05 08:27:58;;;;;;;5.95;3.20;;;9.50;99.90;;;;;;4962549;28;20073;-78
2022/11/05 08:30:24;;;;;;;4.47;2.97;;;9.60;99.90;;;;;;4962497;28;20089;-77
2022/11/05 08:32:50;;;;;;;4.75;2.75;;;9.80;99.90;;;;;;4958530;29;20250;-75
2022/11/05 08:35:15;;;;;;;5.68;2.75;;;10.00;99.90;;;;;;4962345;28;20038;-75
2022/11/05 08:37:41;;;;;;;5.40;2.85;;;10.30;99.90;;;;;;4935223;29;20086;-76
2022/11/05 08:40:07;;;;;;;4.18;3.35;;;10.00;99.90;;;;;;4959100;29;20134;-75
2022/11/05 08:42:55;;;;;;;5.80;2.72;;;10.20;99.90;;;;;;4941403;29;20434;-76
2022/11/05 08:46:03;;;;;;;4.95;2.63;;;10.20;99.90;;;;;;4921748;29;20027;-76
2022/11/05 08:48:39;;;;;;;3.70;2.45;;;10.60;99.90;;;;;;4861324;29;20123;-77
2022/11/05 08:51:12;;;;;;;7.43;2.95;;;12.30;99.90;;;;;;4960479;28;20069;-75
2022/11/05 08:53:38;;;;;;;4.53;2.80;;;11.10;99.90;;;;;;4945923;29;20372;-76
2022/11/05 08:56:13;;;;;;;3.25;2.40;;;11.10;99.90;;;;;;4930339;29;20091;-77
2022/11/05 08:58:42;;;;;;;3.17;2.40;;;10.80;99.90;;;;;;4960715;29;20027;-76
2022/11/05 09:01:40;;;;;;;;;;;;;;;;;;;;;
2022/11/05 09:04:39;;;;;;;3.10;2.33;;;11.70;99.90;;;;;;4940765;29;20055;-77
2022/11/05 09:07:07;;;;;;;3.47;2.13;;;12.30;99.90;;;;;;4949659;28;20254;-78
2022/11/05 09:12:57;;;;;;;3.10;1.85;;;12.30;99.90;;;;;;4901864;29;20098;-79
2022/11/05 09:15:43;;;;;;;2.92;2.17;;;12.20;99.90;;;;;;4892428;29;20321;-80
2022/11/05 09:18:19;;;;;;;4.43;2.20;;;12.30;99.90;;;;;;4891083;29;20048;-81
2022/11/05 09:20:45;;;;;;;8.77;3.33;;;12.50;99.90;;;;;;4892479;29;20064;-81
2022/11/05 09:23:13;;;;;;;4.28;2.30;;;12.70;99.90;;;;;;4924514;28;20275;-74
2022/11/05 09:25:39;;;;;;;6.10;1.92;;;12.60;99.90;;;;;;4949798;29;20067;-77
2022/11/05 09:28:27;;;;;;;4.03;2.30;;;13.10;99.90;;;;;;4953890;29;20294;-77
2022/11/05 09:31:08;;;;;;;5.18;2.40;;;13.00;99.90;;;;;;4961569;29;20327;-77
2022/11/05 09:33:36;;;;;;;3.60;1.80;;;12.80;99.90;;;;;;4965702;28;20075;-77
2022/11/05 09:36:02;;;;;;;6.60;2.22;;;13.10;99.90;;;;;;4940178;29;20072;-77
2022/11/05 09:38:29;;;;;;;4.45;2.13;;;13.20;99.90;;;;;;4930427;29;20055;-77
2022/11/05 09:41:18;;;;;;;4.20;2.20;;;13.20;99.90;;;;;;4930098;29;20058;-77
2022/11/05 09:43:54;;;;;;;3.10;1.80;;;13.30;99.90;;;;;;4961357;29;20329;-77
2022/11/05 09:46:27;;;;;;;3.58;1.80;;;13.50;99.90;;;;;;4930181;29;20049;-79
2022/11/05 09:49:02;;;;;;;5.13;2.28;;;13.70;99.90;;;;;;4938387;29;20106;-78
2022/11/05 09:51:29;;;;;;;2.63;1.90;;;14.10;99.90;;;;;;4961975;29;20049;-78
2022/11/05 09:53:55;;;;;;;5.63;1.77;;;14.00;99.90;;;;;;4936021;29;20044;-77
2022/11/05 09:56:28;;;;;;;4.28;1.90;;;14.40;99.90;;;;;;4957947;29;20476;-77
2022/11/05 09:59:18;;;;;;;2.88;1.63;;;14.20;99.90;;;;;;4943951;29;20031;-78
2022/11/05 10:01:45;;;;;;;2.70;1.70;;;13.10;99.90;;;;;;4922091;29;20087;-79
2022/11/05 10:04:22;;;;;;;3.42;1.70;;;13.20;99.90;;;;;;4937748;29;20036;-75
2022/11/05 10:06:56;;;;;;;6.07;2.15;;;13.10;99.90;;;;;;4942458;29;20045;-77
2022/11/05 10:09:34;;;;;;;2.83;1.90;;;13.70;99.90;;;;;;4923392;29;20143;-76
2022/11/05 10:12:08;;;;;;;5.45;1.67;;;14.00;99.90;;;;;;4957591;29;20067;-77
2022/11/05 10:14:49;;;;;;;4.32;2.08;;;14.50;99.90;;;;;;4959736;29;20248;-75
2022/11/05 10:17:24;;;;;;;5.20;1.80;;;13.60;99.90;;;;;;4937846;29;20345;-77
2022/11/05 10:20:13;;;;;;;4.10;2.08;;;13.70;99.90;;;;;;4942379;29;20031;-74
2022/11/05 10:22:39;;;;;;;5.60;1.83;;;13.90;99.90;;;;;;4932770;29;20031;-76
2022/11/05 10:25:16;;;;;;;3.10;1.88;;;13.80;99.90;;;;;;4941834;29;20090;-77
2022/11/05 10:27:50;;;;;;;6.18;2.05;;;13.50;99.90;;;;;;4950473;29;20512;-76
2022/11/05 10:30:50;;;;;;;4.65;1.92;;;13.40;99.90;;;;;;4951291;29;20253;-78
2022/11/05 10:33:23;;;;;;;2.50;1.65;;;13.20;99.90;;;;;;4930020;29;20296;-76
2022/11/05 10:35:53;;;;;;;3.15;1.88;;;13.20;99.90;;;;;;4977123;28;20106;-78
2022/11/05 10:42:48;;;;;;;3.03;2.00;;;13.00;99.90;;;;;;4947384;29;20043;-78
2022/11/05 10:45:59;;;;;;;3.05;1.80;;;13.00;99.90;;;;;;4825002;29;20069;-75
2022/11/05 10:48:54;;;;;;;4.65;1.77;;;13.10;99.90;;;;;;4861193;29;20328;-76
2022/11/05 10:51:20;;;;;;;5.43;1.90;;;12.60;99.90;;;;;;4960060;29;20202;-77
2022/11/05 10:54:45;;;;;;;;;;;;;;;;;;;;;
2022/11/05 10:57:33;;;;;;;5.57;2.00;;;12.60;99.90;;;;;;4937018;29;20043;-78
2022/11/05 11:00:14;;;;;;;7.72;2.42;;;12.80;99.90;;;;;;4961145;29;20160;-77
2022/11/05 11:02:45;;;;;;;3.85;2.08;;;12.70;99.90;;;;;;4960709;29;20148;-77
2022/11/05 11:05:30;;;;;;;4.93;1.88;;;12.70;99.90;;;;;;4956240;29;20118;-77
2022/11/05 11:08:00;;;;;;;1.70;1.45;;;12.60;99.90;;;;;;4961335;29;20039;-77
2022/11/05 11:10:29;;;;;;;3.28;2.03;;;12.50;99.90;;;;;;4961639;29;20105;-77
2022/11/05 11:12:56;;;;;;;2.88;1.92;;;12.50;99.90;;;;;;4953209;29;20136;-77
2022/11/05 11:15:33;;;;;;;6.22;1.92;;;12.60;99.90;;;;;;4944954;29;20051;-78
2022/11/05 11:18:26;;;;;;;2.97;1.67;;;12.80;99.90;;;;;;4945905;29;20043;-76
2022/11/05 11:20:52;;;;;;;7.80;1.70;;;12.70;99.90;;;;;;4945014;29;20066;-76
2022/11/05 11:23:17;;;;;;;4.10;2.05;;;12.90;99.90;;;;;;4944892;29;20027;-75
2022/11/05 11:25:59;;;;;;;4.15;1.60;;;12.90;99.90;;;;;;4947625;29;20024;-77
2022/11/05 11:28:31;;;;;;;6.15;2.03;;;12.90;99.90;;;;;;4960662;29;20070;-77
2022/11/05 11:31:12;;;;;;;5.63;1.65;;;12.70;99.90;;;;;;4970322;28;20190;-79
2022/11/05 11:33:41;;;;;;;4.35;1.80;;;12.70;99.90;;;;;;4979581;28;20035;-76
2022/11/05 11:36:09;;;;;;;3.38;1.77;;;12.80;99.90;;;;;;4959180;29;20070;-77
2022/11/05 11:38:36;;;;;;;5.20;1.60;;;12.90;99.90;;;;;;4963679;29;20061;-76
2022/11/05 11:41:08;;;;;;;3.97;1.60;;;13.10;99.90;;;;;;4956530;29;20050;-77
2022/11/05 11:43:37;;;;;;;4.20;1.60;;;12.90;99.90;;;;;;4964215;29;20098;-76
2022/11/05 11:46:04;;;;;;;5.50;1.90;;;13.00;99.90;;;;;;4958056;29;20043;-76
2022/11/05 11:48:34;;;;;;;3.38;1.75;;;12.90;99.90;;;;;;4964405;29;20043;-79
2022/11/05 11:51:19;;;;;;;3.13;1.50;;;12.80;99.90;;;;;;4957851;29;20035;-76
2022/11/05 11:53:47;;;;;;;3.20;1.40;;;12.80;99.90;;;;;;4964662;28;20058;-75
2022/11/05 11:56:15;;;;;;;4.20;1.60;;;12.90;99.90;;;;;;4960416;29;20039;-77
2022/11/05 11:58:55;;;;;;;7.00;2.08;;;12.40;99.90;;;;;;4964453;29;20046;-78
2022/11/05 12:01:42;;;;;;;4.32;1.55;;;12.80;99.90;;;;;;4960732;29;20047;-76
2022/11/05 12:04:27;;;;;;;3.67;1.20;;;12.50;99.90;;;;;;4944817;29;20039;-77
2022/11/05 12:07:20;;;;;;;3.50;1.38;;;12.40;99.90;;;;;;4951736;29;20113;-78
2022/11/05 12:09:58;;;;;;;4.53;1.52;;;13.00;99.90;;;;;;4946929;29;20042;-78
2022/11/05 12:12:43;;;;;;;5.18;1.50;;;12.40;99.90;;;;;;4958686;29;20039;-77
2022/11/05 12:15:19;;;;;;;3.72;1.52;;;12.40;99.90;;;;;;4963720;29;20102;-77
2022/11/05 12:17:54;;;;;;;4.00;1.42;;;12.30;99.90;;;;;;4963935;29;20034;-77
2022/11/05 12:20:47;;;;;;;3.63;1.70;;;12.20;99.90;;;;;;4960530;29;20035;-77
2022/11/05 12:23:15;;;;;;;4.03;1.35;;;12.10;99.90;;;;;;4944888;29;20245;-77
2022/11/05 12:26:17;;;;;;;3.42;1.33;;;12.20;99.90;;;;;;4960264;29;20035;-77
2022/11/05 12:29:17;;;;;;;3.80;1.50;;;12.20;99.90;;;;;;4948919;29;20039;-77
2022/11/05 12:32:17;;;;;;;4.47;1.25;;;12.20;99.90;;;;;;4962527;29;20106;-78
2022/11/05 12:35:00;;;;;;;4.35;1.30;;;12.10;99.90;;;;;;4945970;29;20257;-77
2022/11/05 12:37:40;;;;;;;4.90;1.50;;;12.00;99.90;;;;;;4959747;29;20043;-76
2022/11/05 12:40:12;;;;;;;2.65;1.15;;;11.90;99.90;;;;;;4957118;29;20081;-76
2022/11/05 12:43:03;;;;;;;2.50;1.25;;;11.80;99.90;;;;;;4945944;29;20031;-77
2022/11/05 12:45:54;;;;;;;1.77;0.95;;;11.70;99.90;;;;;;4960492;29;20189;-76
2022/11/05 12:48:32;;;;;;;6.47;1.05;;;11.50;99.90;;;;;;4943607;29;20043;-77
2022/11/05 12:51:03;;;;;;;2.58;1.20;;;11.40;99.90;;;;;;4961810;29;20035;-76
2022/11/05 12:53:38;;;;;;;2.00;0.90;;;11.30;99.90;;;;;;4947109;29;20031;-76
2022/11/05 12:56:40;;;;;;;4.15;0.80;;;11.30;99.90;;;;;;4940470;29;20035;-77
2022/11/05 12:59:27;;;;;;;1.60;0.98;;;11.50;99.90;;;;;;4917077;29;20046;-77
2022/11/05 13:02:16;;;;;;;4.18;1.00;;;11.30;99.90;;;;;;4946901;29;20035;-77
2022/11/05 13:04:48;;;;;;;1.77;1.00;;;11.20;99.90;;;;;;4943348;29;20062;-77
2022/11/05 13:07:26;;;;;;;2.08;1.08;;;11.30;99.90;;;;;;4957811;29;20166;-77
2022/11/05 13:09:57;;;;;;;2.45;1.65;;;11.20;99.90;;;;;;4961385;29;20046;-77
2022/11/05 13:16:24;;;;;;;;;;;;;;;;;;;;;
2022/11/05 13:19:26;;;;;;;3.75;1.27;;;11.00;99.90;;;;;;4955162;29;20051;-77
2022/11/05 13:22:18;;;;;;;2.13;1.23;;;11.00;99.90;;;;;;4947179;29;20039;-76
2022/11/05 13:24:55;;;;;;;3.17;1.10;;;11.00;99.90;;;;;;4962559;29;20031;-77
2022/11/05 13:27:51;;;;;;;3.47;1.30;;;11.00;99.90;;;;;;4958501;29;20154;-77
2022/11/05 13:30:21;;;;;;;3.33;1.50;;;11.00;99.90;;;;;;4946054;29;20318;-77
2022/11/05 13:33:06;;;;;;;8.32;1.80;;;11.10;99.90;;;;;;4962168;29;20131;-76
2022/11/05 13:35:45;;;;;;;4.53;1.52;;;11.10;99.90;;;;;;4959996;29;20351;-77
2022/11/05 13:41:21;;;;;;;3.10;1.30;;;11.30;99.90;;;;;;4978276;28;20042;-79
2022/11/05 13:44:26;;;;;;;3.42;1.33;;;11.20;99.90;;;;;;4946101;29;20031;-78
2022/11/05 13:47:29;;;;;;;3.33;1.52;;;11.30;99.90;;;;;;4915308;29;20078;-77
2022/11/05 13:50:34;;;;;;;2.53;1.50;;;11.30;99.90;;;;;;4946272;29;20069;-77
2022/11/05 13:53:24;;;;;;;5.30;1.80;;;11.30;99.90;;;;;;4961977;29;20066;-77
2022/11/05 13:56:28;;;;;;;3.08;1.48;;;11.30;99.90;;;;;;4961765;29;20390;-79
2022/11/05 13:59:02;;;;;;;5.13;2.03;;;11.30;99.90;;;;;;4961816;29;20042;-77
2022/11/05 14:01:30;;;;;;;5.90;1.98;;;11.30;99.90;;;;;;4960135;29;20023;-77
2022/11/05 14:03:56;;;;;;;4.97;1.70;;;11.30;99.90;;;;;;4954794;29;20049;-78
2022/11/05 14:06:34;;;;;;;6.40;2.80;;;11.30;99.90;;;;;;4962409;29;20385;-78
2022/11/05 14:09:09;;;;;;;6.65;3.78;;;11.30;99.90;;;;;;4945967;29;20046;-77
2022/11/05 14:11:39;;;;;;;7.13;3.65;;;11.30;99.90;;;;;;4946394;29;20035;-78
2022/11/05 14:14:15;;;;;;;8.88;4.57;;;11.20;99.90;;;;;;4965870;28;20042;-79
2022/11/05 14:17:02;;;;;;;7.40;4.32;;;11.20;99.90;;;;;;4980293;28;20042;-78
2022/11/05 14:19:47;;;;;;;5.50;4.03;;;10.30;99.90;;;;;;4978275;28;20045;-77
2022/11/05 14:22:36;;;;;;;9.40;3.60;;;11.20;99.90;;;;;;4961601;28;20457;-78
2022/11/05 14:25:21;;;;;;;5.47;2.78;;;11.20;99.90;;;;;;4942346;29;20071;-78
2022/11/05 14:27:56;;;;;;;5.78;3.38;;;11.20;99.90;;;;;;4942900;29;20334;-78
2022/11/05 14:30:46;;;;;;;6.85;3.17;;;11.30;99.90;;;;;;4940754;29;20036;-78